ADDS METAR Data INFO
IDs: Format: Raw Decoded Include TAF

Data at: 1731 UTC 18 Jan 2018

METAR for:KGEZ (Shelbyville Muni, IN, US)
Text:KGEZ 181653Z AUTO 22015KT 10SM CLR M05/M12 A3029 RMK AO2 SLP273 T10501117
Temperature: -5.0°C ( 23°F)
Dewpoint:-11.7°C ( 11°F) [RH = 59%]
Pressure (altimeter):30.29 inches Hg (1025.8 mb) [Sea level pressure: 1027.3 mb]
Winds:from the SW (220 degrees) at 17 MPH (15 knots; 7.7 m/s)
Visibility:10 or more sm (16+ km)
Ceiling:at least 12,000 feet AGL
Clouds:sky clear below 12,000 feet AGL
QC Flag:automated observation with no human augmentation